UASP

Details ICAO UASP (PWQ)
Name Pavlodar
Region Kazakhstan and Kyrgyzstan
Timezone Asia/Almaty (UTC+6.0)
Plans Departing 79
Arriving 95
Stats Elevation 411 ft / 125 m (AMSL)
Location 52.195300° 77.073300°
Runways 1
Magnetic Variation 9.451° E
Sunrise 2024-03-04 01:32:30 UTC / 2024-03-04 07:32:30 Local
Sunset 2024-03-04 12:37:16 UTC / 2024-03-04 18:37:16 Local
Advertisement - Login to hide

Runways

ID Width Length Bearing (true/mag) Surface Threshold Overrun Markings Lighting
03 148 ft / 45 m 8,148 ft / 2,484 m 42.58° / 33.13° ASPHALT 0 ft / 0 m 0 ft / 0 m PREC-APP EDGE THRESHOLD ALSF-II
21 148 ft / 45 m 8,148 ft / 2,484 m 222.60° / 213.15° ASPHALT 0 ft / 0 m 187 ft / 57 m PREC-APP EDGE THRESHOLD ALSF-II

Approach Navaids

Runway Type Ident Frequency Range Bearing (true/mag) Slope Elevation
21 LOC-ILS IPW 110.70 MHz 18 nm / 33 km 222.59° / 213.14° - 411 ft / 125 m (AMSL)
21 GS IPW 110.70 MHz 10 nm / 19 km 222.59° / 213.14° 2.70° 411 ft / 125 m (AMSL)

Map

Weather


0- 5 10 15 20 25 30 35+ Temperature / °C

Clouds and Precipitation
Forecast for 2024-03-04 06:00 UTC. Updated 3 hours ago

Ground ~20,000 ft ~40,000 ft Winds

METAR

UASP 040630Z 26009MPS 9999 -SN DRSN OVC011 M06/M08 Q1021 TEMPO 1000 SN OVC003 RMK QFE754/1006

TAF

Not found

Frequencies

Tower 119.80 MHz Pavlodar Tower
Recorded 134.60 MHz ATIS
Recorded 133.60 MHz ATIS
Warning: Do not use this data for real-world aviation or navigation. No guarantee of current accuracy is given.